createdAt,value
2019-02-08T07:58:21.505Z,3.3
2019-02-08T07:58:29.681Z,3.2
2019-02-08T07:58:37.855Z,3.2
2019-02-08T07:58:46.067Z,3.3
2019-02-08T07:58:54.253Z,3.3
2019-02-08T07:59:02.693Z,3.2
2019-02-08T07:59:10.894Z,3.1
2019-02-08T07:59:20.101Z,3.1
2019-02-08T07:59:28.361Z,3
2019-02-08T07:59:36.635Z,3.1
2019-02-08T07:59:44.873Z,3.3
2019-02-08T07:59:53.056Z,3.5
2019-02-08T08:00:01.268Z,3.6
2019-02-08T08:00:09.452Z,3.7
2019-02-08T08:00:17.659Z,3.6
2019-02-08T08:00:25.820Z,3.7
2019-02-08T08:00:34.010Z,3.7
2019-02-08T08:00:43.331Z,3.8
2019-02-08T08:00:51.560Z,3.6
2019-02-08T08:00:59.740Z,3.5
2019-02-08T08:01:07.906Z,3.6
2019-02-08T08:01:16.155Z,3.5
2019-02-08T08:01:24.326Z,3.6
2019-02-08T08:01:32.513Z,3.7
2019-02-08T08:01:40.697Z,3.6
2019-02-08T08:01:48.917Z,3.7
2019-02-08T08:01:57.112Z,3.6
2019-02-08T08:02:05.312Z,3.3
2019-02-08T08:02:14.388Z,3.5
2019-02-08T08:02:22.733Z,3.7
2019-02-08T08:02:30.989Z,3.6
2019-02-08T08:02:39.146Z,3.6
2019-02-08T08:02:47.368Z,3.2
2019-02-08T08:02:55.598Z,3.1
2019-02-08T08:03:03.795Z,3.2
2019-02-08T08:03:11.994Z,3.3
2019-02-08T08:03:20.200Z,3.3
2019-02-08T08:03:28.429Z,3.5
2019-02-08T08:03:37.214Z,3.5
2019-02-08T08:03:45.731Z,3.5
2019-02-08T08:04:01.159Z,3.5
2019-02-08T08:04:07.234Z,3.3
2019-02-08T08:04:16.352Z,3.3
2019-02-08T08:04:25.239Z,3.3
2019-02-08T08:04:34.535Z,3.6
2019-02-08T08:04:43.575Z,3.3
2019-02-08T08:04:52.790Z,3.1
2019-02-08T08:05:01.772Z,3
2019-02-08T08:05:10.212Z,3
2019-02-08T08:05:18.953Z,3.2
2019-02-08T08:05:28.199Z,3.2
2019-02-08T08:05:37.132Z,3.4
2019-02-08T08:05:46.181Z,3.5
2019-02-08T08:05:55.180Z,3.3
2019-02-08T08:06:04.088Z,3.2
2019-02-08T08:06:13.511Z,3.1
2019-02-08T08:06:22.909Z,3.3
2019-02-08T08:06:32.118Z,3.2
2019-02-08T08:06:41.244Z,3.3
2019-02-08T08:06:50.621Z,3.2
2019-02-08T08:06:59.495Z,3.1
2019-02-08T08:07:08.530Z,3.1
2019-02-08T08:07:17.850Z,3.1
2019-02-08T08:07:27.118Z,3.1
2019-02-08T08:07:36.497Z,3.1
2019-02-08T08:07:46.775Z,3.3
2019-02-08T08:07:56.929Z,3.3
2019-02-08T08:08:06.750Z,3.5
2019-02-08T08:08:15.859Z,3.3
2019-02-08T08:08:24.581Z,3.3
2019-02-08T08:08:33.545Z,3.5
2019-02-08T08:08:42.565Z,3.2
2019-02-08T08:08:52.291Z,3.4
2019-02-08T08:09:01.139Z,3.1
2019-02-08T08:09:10.362Z,3.1
2019-02-08T08:09:19.472Z,3.2
2019-02-08T08:09:28.596Z,3
2019-02-08T08:09:37.710Z,3.1
2019-02-08T08:09:47.725Z,3.2
2019-02-08T08:09:56.889Z,3.3
2019-02-08T08:10:05.856Z,3.3
2019-02-08T08:10:15.030Z,3.1
2019-02-08T08:10:24.381Z,3
2019-02-08T08:10:34.703Z,3
2019-02-08T08:10:45.085Z,2.9
2019-02-08T08:10:54.404Z,3.1
2019-02-08T08:11:03.432Z,2.9
2019-02-08T08:11:13.575Z,3.1
2019-02-08T08:11:22.616Z,3
2019-02-08T08:11:31.903Z,3
2019-02-08T08:11:41.234Z,3
2019-02-08T08:11:50.611Z,3.2
2019-02-08T08:11:59.770Z,3.1
2019-02-08T08:12:08.890Z,3.1
2019-02-08T08:12:18.070Z,3.1
2019-02-08T08:12:26.730Z,3
2019-02-08T08:12:36.070Z,3.1
2019-02-08T08:12:45.391Z,3.1
2019-02-08T08:12:54.744Z,3.2
2019-02-08T08:13:03.699Z,3.3
2019-02-08T08:13:13.012Z,3
2019-02-08T08:13:22.358Z,2.8
2019-02-08T08:13:31.590Z,2.7
2019-02-08T08:13:40.643Z,2.9
2019-02-08T08:13:49.775Z,3.2
2019-02-08T08:13:58.931Z,3
2019-02-08T08:14:07.932Z,3
2019-02-08T08:14:17.322Z,3.1
2019-02-08T08:14:26.159Z,3.1
2019-02-08T08:14:34.345Z,3.2
2019-02-08T08:14:42.592Z,3.1
2019-02-08T08:14:50.785Z,3
2019-02-08T08:14:59.657Z,3.2
2019-02-08T08:15:08.787Z,3.2
2019-02-08T08:15:17.938Z,3.2
2019-02-08T08:15:26.990Z,3.1
2019-02-08T08:15:36.358Z,3.1
2019-02-08T08:15:45.815Z,3.2
2019-02-08T08:15:54.971Z,3.1
2019-02-08T08:16:04.028Z,3.2
2019-02-08T08:16:13.374Z,3
2019-02-08T08:16:22.765Z,3
2019-02-08T08:16:32.068Z,2.9
2019-02-08T08:16:41.096Z,2.9
2019-02-08T08:16:50.460Z,2.8
2019-02-08T08:16:59.657Z,2.8
2019-02-08T08:17:08.747Z,2.8
2019-02-08T08:17:18.108Z,2.9
2019-02-08T08:17:27.303Z,3.1
2019-02-08T08:17:36.644Z,3.2
2019-02-08T08:17:45.356Z,3.2
2019-02-08T08:17:54.680Z,3.4
2019-02-08T08:18:04.514Z,3.2
2019-02-08T08:18:13.588Z,3.1
2019-02-08T08:18:22.936Z,2.6
2019-02-08T08:18:32.254Z,2.7
2019-02-08T08:18:42.214Z,2.7
2019-02-08T08:18:51.517Z,2.9
2019-02-08T08:19:00.683Z,2.9
2019-02-08T08:19:09.885Z,2.8
2019-02-08T08:19:18.996Z,2.9
2019-02-08T08:19:29.315Z,3
2019-02-08T08:19:38.705Z,3
2019-02-08T08:19:48.079Z,3
2019-02-08T08:19:57.421Z,3
2019-02-08T08:20:06.372Z,3
2019-02-08T08:20:15.366Z,2.8
2019-02-08T08:20:24.763Z,2.7
2019-02-08T08:20:34.162Z,2.8
2019-02-08T08:20:43.457Z,3.1
2019-02-08T08:20:52.963Z,3.4
2019-02-08T08:21:02.057Z,3.1
2019-02-08T08:21:11.412Z,3
2019-02-08T08:21:20.773Z,3
2019-02-08T08:21:30.089Z,3.1
2019-02-08T08:21:39.457Z,3.2
2019-02-08T08:21:49.799Z,3.1
2019-02-08T08:21:59.113Z,3.1
2019-02-08T08:22:08.172Z,3
2019-02-08T08:22:17.329Z,3.1
2019-02-08T08:22:26.635Z,3.3
2019-02-08T08:22:35.960Z,3.2
2019-02-08T08:22:45.303Z,3.3
2019-02-08T08:22:54.648Z,3.3
2019-02-08T08:23:03.715Z,3.4
2019-02-08T08:23:13.585Z,3.3
2019-02-08T08:23:22.892Z,3.2
2019-02-08T08:23:32.237Z,2.8
2019-02-08T08:23:41.425Z,2.7
2019-02-08T08:23:50.621Z,2.7
2019-02-08T08:23:59.696Z,2.8
2019-02-08T08:24:08.744Z,2.9
2019-02-08T08:24:18.099Z,2.7
2019-02-08T08:24:26.795Z,2.8
2019-02-08T08:24:36.942Z,2.8
2019-02-08T08:24:46.312Z,3.1
2019-02-08T08:24:55.693Z,2.9
2019-02-08T08:25:04.445Z,3.1
2019-02-08T08:25:14.793Z,3.1
2019-02-08T08:25:25.093Z,3.1
2019-02-08T08:25:37.737Z,3.2
2019-02-08T08:25:47.242Z,2.9
2019-02-08T08:25:56.420Z,2.7
2019-02-08T08:26:05.467Z,2.5
2019-02-08T08:26:14.703Z,2.5
2019-02-08T08:26:23.610Z,2.7
2019-02-08T08:26:31.888Z,2.9
2019-02-08T08:26:40.799Z,2.9
2019-02-08T08:26:50.180Z,3
2019-02-08T08:26:59.369Z,2.8
2019-02-08T08:27:07.551Z,2.9
2019-02-08T08:27:15.790Z,3.1
2019-02-08T08:27:25.008Z,3
2019-02-08T08:27:33.621Z,3.1
2019-02-08T08:27:42.077Z,3.2
2019-02-08T08:27:50.762Z,3.2
2019-02-08T08:27:59.355Z,3.3
2019-02-08T08:28:07.639Z,3.1
2019-02-08T08:28:16.389Z,2.9
2019-02-08T08:28:24.958Z,2.9
2019-02-08T08:28:33.487Z,3
2019-02-08T08:28:42.025Z,3
2019-02-08T08:28:50.775Z,3.1
2019-02-08T08:28:59.462Z,3.2
2019-02-08T08:29:08.834Z,3.2
2019-02-08T08:29:17.555Z,3.3
2019-02-08T08:29:27.131Z,3.2
2019-02-08T08:29:35.883Z,3.2
2019-02-08T08:29:44.550Z,3.4
2019-02-08T08:29:53.467Z,3.4
2019-02-08T08:30:01.799Z,3.3
2019-02-08T08:30:11.303Z,3.4
2019-02-08T08:30:20.297Z,3.4
2019-02-08T08:30:29.319Z,3.5
2019-02-08T08:30:38.645Z,3.6
2019-02-08T08:30:47.722Z,3.5
2019-02-08T08:30:56.897Z,3.5
2019-02-08T08:31:05.819Z,3.4
2019-02-08T08:31:14.644Z,3.6
2019-02-08T08:31:24.002Z,3.6
2019-02-08T08:31:33.123Z,3.8
2019-02-08T08:31:42.581Z,3.7
2019-02-08T08:31:51.980Z,3.9
2019-02-08T08:32:02.006Z,3.9
2019-02-08T08:32:11.287Z,3.9
2019-02-08T08:32:20.651Z,3.7
2019-02-08T08:32:29.809Z,3.7
2019-02-08T08:32:39.228Z,3.7
2019-02-08T08:32:48.282Z,3.8
2019-02-08T08:32:57.631Z,3.7
2019-02-08T08:33:07.701Z,3.6
2019-02-08T08:33:18.060Z,3.5
2019-02-08T08:33:27.426Z,3.6
2019-02-08T08:33:36.597Z,3.7
2019-02-08T08:33:45.478Z,3.7
2019-02-08T08:33:54.488Z,3.4
2019-02-08T08:34:03.377Z,3.3
2019-02-08T08:34:13.629Z,3.4
2019-02-08T08:34:22.635Z,3.4
2019-02-08T08:34:31.415Z,3.5
2019-02-08T08:34:40.817Z,3.5
2019-02-08T08:34:50.155Z,3.5
2019-02-08T08:35:00.346Z,3.3
2019-02-08T08:35:09.543Z,3.2
2019-02-08T08:35:18.936Z,3.1
2019-02-08T08:35:27.371Z,3.1
2019-02-08T08:35:36.647Z,3.5
2019-02-08T08:35:46.055Z,3.5
2019-02-08T08:35:55.487Z,3.5
2019-02-08T08:36:04.515Z,3.3
2019-02-08T08:36:13.901Z,3.2
2019-02-08T08:36:23.383Z,3.2
2019-02-08T08:36:32.856Z,3.4
2019-02-08T08:36:42.039Z,3.6
2019-02-08T08:36:51.439Z,3.8
2019-02-08T08:37:00.664Z,3.8
2019-02-08T08:37:09.531Z,3.7
2019-02-08T08:37:18.862Z,3.9
2019-02-08T08:37:28.926Z,3.8
2019-02-08T08:37:38.347Z,3.8
2019-02-08T08:37:47.715Z,3.7
2019-02-08T08:37:56.970Z,3.6
2019-02-08T08:38:05.856Z,3.5
2019-02-08T08:38:15.264Z,3.4
2019-02-08T08:38:24.617Z,3.5
2019-02-08T08:38:33.987Z,3.3
2019-02-08T08:38:43.014Z,3.1
2019-02-08T08:38:52.211Z,3.1
2019-02-08T08:39:01.080Z,3.1
2019-02-08T08:39:10.098Z,3.3
2019-02-08T08:39:19.399Z,3.3
2019-02-08T08:39:27.799Z,3.2
2019-02-08T08:39:36.472Z,3.3
2019-02-08T08:39:46.209Z,3.2
2019-02-08T08:39:54.608Z,3.4
2019-02-08T08:40:02.854Z,3.4
2019-02-08T08:40:11.038Z,3.2
2019-02-08T08:40:19.276Z,3.2
2019-02-08T08:40:28.005Z,3.3
2019-02-08T08:40:36.649Z,3.3
2019-02-08T08:40:45.690Z,3.4
2019-02-08T08:40:54.115Z,3.6
2019-02-08T08:41:02.928Z,3.6
2019-02-08T08:41:11.553Z,3.5
2019-02-08T08:41:19.992Z,3.4
2019-02-08T08:41:28.338Z,3.4
2019-02-08T08:41:38.233Z,3.2
2019-02-08T08:41:46.928Z,3.3
2019-02-08T08:41:55.151Z,3.3
2019-02-08T08:42:03.664Z,3.2
2019-02-08T08:42:11.881Z,3.3
2019-02-08T08:42:20.229Z,3.2
2019-02-08T08:42:28.433Z,3.2
2019-02-08T08:42:36.619Z,3.3
2019-02-08T08:42:44.964Z,3.2
2019-02-08T08:42:54.122Z,3.2
2019-02-08T08:43:02.643Z,3.2
2019-02-08T08:43:11.605Z,3.3
2019-02-08T08:43:21.465Z,3.5
2019-02-08T08:43:29.643Z,3.4
2019-02-08T08:43:37.882Z,3.6
2019-02-08T08:43:46.091Z,3.6
2019-02-08T08:43:56.090Z,3.3
2019-02-08T08:44:05.037Z,3.5
2019-02-08T08:44:14.227Z,3.3
2019-02-08T08:44:22.932Z,3.6
2019-02-08T08:44:31.832Z,3.3
2019-02-08T08:44:41.170Z,3.2
2019-02-08T08:44:50.342Z,3.2
2019-02-08T08:44:59.366Z,3.2
2019-02-08T08:45:08.370Z,3.3
2019-02-08T08:45:17.285Z,3.2
2019-02-08T08:45:26.469Z,3.2
2019-02-08T08:45:35.465Z,3.2
2019-02-08T08:45:44.851Z,3.2
2019-02-08T08:45:54.105Z,3.2
2019-02-08T08:46:04.177Z,3.2
2019-02-08T08:46:13.478Z,3.2
2019-02-08T08:46:22.628Z,3.2
2019-02-08T08:46:31.488Z,3.5
2019-02-08T08:46:40.922Z,3.5
2019-02-08T08:46:51.075Z,3.5
2019-02-08T08:47:00.112Z,3.3
2019-02-08T08:47:09.290Z,3.4
2019-02-08T08:47:18.610Z,3.3
2019-02-08T08:47:27.640Z,3.3
2019-02-08T08:47:36.648Z,3.3
2019-02-08T08:47:45.773Z,3.2
2019-02-08T08:47:54.685Z,3.2
2019-02-08T08:48:03.702Z,3.3
2019-02-08T08:48:13.045Z,3.3
2019-02-08T08:48:22.301Z,3.4
2019-02-08T08:48:30.657Z,3.4
2019-02-08T08:48:39.725Z,3.4
2019-02-08T08:48:48.602Z,3.2
2019-02-08T08:48:57.563Z,3.3
2019-02-08T08:49:06.555Z,3.4
2019-02-08T08:49:15.594Z,3.4
2019-02-08T08:49:24.798Z,3.3
2019-02-08T08:49:33.979Z,3.3
2019-02-08T08:49:42.705Z,3.4
2019-02-08T08:49:51.830Z,3.5
2019-02-08T08:50:00.650Z,3.5
2019-02-08T08:50:09.755Z,3.2
2019-02-08T08:50:19.030Z,3.1
2019-02-08T08:50:28.360Z,3.2
2019-02-08T08:50:37.728Z,3.4
2019-02-08T08:50:49.164Z,3.3
2019-02-08T08:50:58.198Z,3.4
2019-02-08T08:51:07.078Z,3.1
2019-02-08T08:51:16.469Z,3.2
2019-02-08T08:51:25.566Z,2.8
2019-02-08T08:51:34.938Z,2.8
2019-02-08T08:51:44.227Z,2.9
2019-02-08T08:51:53.575Z,3.2
2019-02-08T08:52:02.447Z,3.3
2019-02-08T08:52:11.615Z,3.3
2019-02-08T08:52:20.851Z,3.5
2019-02-08T08:52:30.203Z,3.5
2019-02-08T08:52:39.093Z,3.6
2019-02-08T08:52:48.322Z,3.4
2019-02-08T08:52:57.722Z,3.2
2019-02-08T08:53:06.704Z,3.3
2019-02-08T08:53:15.997Z,3.2
2019-02-08T08:53:25.034Z,3.1
2019-02-08T08:53:34.074Z,3.3
2019-02-08T08:53:43.987Z,3.2
2019-02-08T08:53:52.885Z,3.2
2019-02-08T08:54:02.642Z,3.1
2019-02-08T08:54:11.064Z,2.9
2019-02-08T08:54:19.627Z,3
2019-02-08T08:54:28.505Z,3
2019-02-08T08:54:37.710Z,3.2
2019-02-08T08:54:47.067Z,3.4
2019-02-08T08:54:56.257Z,3.3
2019-02-08T08:55:04.478Z,3.2
2019-02-08T08:55:12.789Z,3.1
2019-02-08T08:55:21.494Z,3.2
2019-02-08T08:55:30.895Z,3.4
2019-02-08T08:55:43.448Z,3.4
2019-02-08T08:55:52.679Z,3.4
2019-02-08T08:56:01.524Z,3.3
2019-02-08T08:56:10.896Z,3.3
2019-02-08T08:56:20.092Z,3.3
2019-02-08T08:56:28.871Z,3.1
2019-02-08T08:56:38.602Z,3.2
2019-02-08T08:56:47.876Z,3.1
2019-02-08T08:56:57.125Z,3.3
2019-02-08T08:57:06.151Z,3.3
2019-02-08T08:57:16.244Z,3.2
2019-02-08T08:57:26.445Z,3
2019-02-08T08:57:36.814Z,3.1
2019-02-08T08:57:45.816Z,3.1
2019-02-08T08:57:55.236Z,3
2019-02-08T08:58:04.332Z,2.9
2019-02-08T08:58:13.398Z,2.9
2019-02-08T08:58:22.667Z,3
2019-02-08T08:58:32.679Z,3.1
2019-02-08T08:58:41.710Z,3.2
2019-02-08T08:58:50.925Z,3.2
2019-02-08T08:59:00.131Z,2.9
2019-02-08T08:59:10.927Z,2.9
2019-02-08T08:59:21.739Z,2.8
2019-02-08T08:59:31.739Z,2.9
2019-02-08T08:59:40.914Z,2.9
2019-02-08T08:59:50.248Z,3
2019-02-08T09:00:01.100Z,3.1
2019-02-08T09:00:11.692Z,3.1
2019-02-08T09:00:20.368Z,3
2019-02-08T09:00:29.414Z,2.7
2019-02-08T09:00:38.313Z,2.7
2019-02-08T09:00:47.511Z,2.8
2019-02-08T09:00:56.885Z,3
2019-02-08T09:01:05.714Z,3.1
2019-02-08T09:01:14.594Z,3.3
2019-02-08T09:01:24.827Z,3.2
2019-02-08T09:01:34.176Z,3.1
2019-02-08T09:01:43.033Z,3
2019-02-08T09:01:52.382Z,3
2019-02-08T09:02:01.077Z,2.9
2019-02-08T09:02:10.290Z,2.9
2019-02-08T09:02:19.451Z,2.8
2019-02-08T09:02:28.801Z,2.8
2019-02-08T09:02:38.117Z,2.7
2019-02-08T09:02:47.308Z,2.8
2019-02-08T09:02:56.547Z,2.8
2019-02-08T09:03:05.393Z,2.8
2019-02-08T09:03:14.128Z,2.9
2019-02-08T09:03:23.259Z,2.8
2019-02-08T17:25:08.484Z,2
2019-02-08T17:25:16.761Z,2
2019-02-08T18:21:59.459Z,27.200001
2019-02-08T18:22:08.634Z,27.9
2019-02-08T18:22:17.774Z,29.1
2019-02-08T18:22:25.970Z,30.200001
2019-02-08T18:22:35.131Z,31.299999
2019-02-08T18:22:43.285Z,31.9
2019-02-08T18:22:51.504Z,32
2019-02-08T18:22:59.700Z,32.200001
2019-02-08T18:23:08.543Z,32.599998
2019-02-08T18:23:17.172Z,32.700001
2019-02-08T18:23:26.414Z,33.099998
2019-02-08T18:23:35.769Z,33.099998
2019-02-08T18:23:44.798Z,33.700001
2019-02-08T18:23:54.027Z,33.599998
2019-02-08T18:24:03.503Z,29.299999
2019-02-08T18:24:12.846Z,24.6
2019-02-08T18:24:22.951Z,19
2019-02-08T18:24:31.398Z,19.5
2019-02-08T18:24:40.575Z,19
2019-02-08T18:24:49.768Z,17.9
2019-02-08T18:24:58.438Z,17.4
2019-02-08T18:25:07.197Z,16.299999
2019-02-08T18:25:16.501Z,15.9
2019-02-08T18:25:25.474Z,15.1
2019-02-08T18:25:34.232Z,13.9
2019-02-08T18:25:42.771Z,13.7
2019-02-08T18:25:51.938Z,13.2
2019-02-08T18:26:01.983Z,12.8
2019-02-08T18:26:11.341Z,12.8
2019-02-08T18:26:20.500Z,13.7
2019-02-08T18:26:29.789Z,13
2019-02-08T18:26:39.135Z,11.7
2019-02-08T18:26:48.495Z,10.7
2019-02-08T18:26:57.554Z,12.3
2019-02-08T18:27:07.591Z,15.5
2019-02-08T18:27:16.929Z,17.200001
2019-02-08T18:27:26.301Z,17.4
2019-02-08T18:27:35.672Z,16.5
2019-02-08T18:27:45.025Z,15.2
2019-02-08T18:27:54.396Z,14.1
2019-02-08T18:28:10.473Z,12.7
2019-02-08T18:28:16.924Z,11.6
2019-02-08T18:28:25.130Z,11.4
2019-02-08T18:28:34.473Z,11.5
2019-02-08T18:28:42.649Z,11.7
2019-02-08T18:28:50.832Z,11.7
2019-02-08T18:28:59.001Z,11.6
2019-02-08T18:29:07.177Z,11.4
2019-02-08T18:29:15.320Z,11.2
2019-02-08T18:29:23.512Z,10.8
2019-02-08T18:29:31.761Z,10.6
2019-02-08T18:29:39.924Z,11
2019-02-08T18:29:48.103Z,11.1
2019-02-08T18:29:56.270Z,11.5
2019-02-08T18:30:04.410Z,11.5
2019-02-08T18:30:13.757Z,11.6
2019-02-08T18:30:22.672Z,12.1
2019-02-08T18:30:31.134Z,12
2019-02-08T18:30:39.275Z,12
2019-02-08T18:30:48.030Z,12.2
2019-02-08T18:30:56.491Z,12.3
2019-02-08T18:31:05.090Z,12.9
2019-02-08T18:31:13.547Z,13.3
2019-02-08T18:31:22.151Z,13.3
2019-02-08T18:31:30.667Z,12.6
2019-02-08T18:31:39.142Z,13.2
2019-02-08T18:31:47.630Z,13.3
2019-02-08T18:31:56.245Z,13.9
2019-02-08T18:32:04.415Z,14
2019-02-08T18:32:13.080Z,13.8
2019-02-08T18:32:22.035Z,13.7
2019-02-08T18:32:31.199Z,13.4
2019-02-08T18:32:40.017Z,13.3
2019-02-08T18:32:49.275Z,13.3
2019-02-08T18:32:57.985Z,13.3
2019-02-08T18:33:06.380Z,13.2
2019-02-08T18:33:15.975Z,12.7
2019-02-08T18:33:24.279Z,12.4
2019-02-08T18:33:32.883Z,12.5
2019-02-08T18:33:41.461Z,12.5
2019-02-08T18:33:51.979Z,12.6
2019-02-08T18:34:00.646Z,12.3
2019-02-08T18:34:09.203Z,12.5
2019-02-08T18:34:17.601Z,12.4
2019-02-08T18:34:26.407Z,12.3
2019-02-08T18:34:35.310Z,12.3
2019-02-08T18:34:43.935Z,12.3
2019-02-08T18:34:53.940Z,12.6
2019-02-08T18:35:02.597Z,12.3
2019-02-08T18:35:11.648Z,11.9
2019-02-08T18:35:20.554Z,12
2019-02-08T18:35:29.922Z,12.1
2019-02-08T18:35:39.254Z,12.1
2019-02-08T18:35:48.428Z,11.9
2019-02-08T18:35:57.764Z,11.9
2019-02-08T18:36:07.677Z,11.8
2019-02-08T18:36:17.851Z,12
2019-02-08T18:36:27.183Z,12.2
2019-02-08T18:36:36.376Z,12.2
2019-02-08T18:36:45.235Z,12
2019-02-08T18:36:54.577Z,11.7
2019-02-08T18:37:03.408Z,11.5
2019-02-08T18:37:12.431Z,11.6
2019-02-08T18:37:21.583Z,11.3
2019-02-08T18:37:30.959Z,11.6
2019-02-08T18:37:40.301Z,11.9
2019-02-08T18:37:49.701Z,12.3
2019-02-08T18:37:59.867Z,12.3
2019-02-08T18:38:08.936Z,12.1
2019-02-08T18:38:18.012Z,11.9
2019-02-08T18:38:27.387Z,11.5
2019-02-08T18:38:36.705Z,11
2019-02-08T18:38:46.054Z,11.1
2019-02-08T18:38:57.344Z,11.3
2019-02-08T18:39:05.971Z,11.2
2019-02-08T18:39:15.327Z,11.3
2019-02-08T18:39:24.640Z,11.3
2019-02-08T18:39:33.810Z,11.3
2019-02-08T18:39:43.133Z,11.3
2019-02-08T18:39:52.398Z,11.3
2019-02-08T18:40:01.403Z,11.1
2019-02-08T18:40:10.413Z,11.3
2019-02-08T18:40:19.750Z,11.4
2019-02-08T18:40:29.117Z,11.7
2019-02-08T18:40:38.318Z,11.7
2019-02-08T18:40:47.041Z,12
2019-02-08T18:40:56.383Z,11.8
2019-02-08T18:41:06.021Z,11.7
2019-02-08T18:41:15.191Z,11.3
2019-02-08T18:41:24.516Z,11.3
2019-02-08T18:41:33.522Z,11
2019-02-08T18:41:42.690Z,10.9
2019-02-08T18:41:52.066Z,11.2
2019-02-08T18:42:01.919Z,11.5
2019-02-08T18:42:11.303Z,11.8
2019-02-08T18:42:20.666Z,11.3
2019-02-08T18:42:29.814Z,11.2
2019-02-08T18:42:39.150Z,11
2019-02-08T18:42:48.294Z,10.8
2019-02-08T18:42:57.597Z,10.6
2019-02-08T18:43:06.641Z,10
2019-02-08T18:43:15.965Z,9.6
2019-02-08T18:43:26.299Z,9.3
2019-02-08T18:43:35.620Z,9
2019-02-08T18:43:44.851Z,9.1
2019-02-08T18:43:54.191Z,9
2019-02-08T18:44:04.244Z,9.2
2019-02-08T18:44:13.432Z,8.8
2019-02-08T18:44:23.202Z,9
2019-02-08T18:44:33.227Z,8.9
2019-02-08T18:44:43.338Z,9.1
2019-02-08T18:44:53.147Z,8.4
2019-02-08T18:45:03.082Z,8.9
2019-02-08T18:45:12.738Z,10.8
2019-02-08T18:45:22.743Z,12.5
2019-02-08T18:45:32.831Z,12.5
2019-02-08T18:45:43.047Z,10.7
2019-02-08T18:45:53.018Z,9.3
2019-02-08T18:46:03.011Z,8.8
2019-02-08T18:46:12.672Z,8.5
2019-02-08T18:46:22.789Z,8.3
2019-02-08T18:46:32.757Z,8.3
2019-02-08T18:46:42.804Z,8.3
2019-02-08T18:46:52.979Z,8.6
2019-02-08T18:47:02.720Z,8.6
2019-02-08T18:47:12.721Z,8.7
2019-02-08T18:47:22.588Z,8.5
2019-02-08T18:47:32.727Z,8.6
2019-02-08T18:47:42.045Z,8.6
2019-02-08T18:47:51.383Z,8.6
2019-02-08T18:48:00.510Z,8.6
2019-02-08T18:48:09.667Z,8.3
2019-02-08T18:48:18.999Z,8.4
2019-02-08T18:48:28.028Z,8.4
2019-02-08T18:48:37.461Z,8.3
2019-02-08T18:48:47.145Z,7.9
2019-02-08T18:48:56.296Z,8.1
2019-02-08T18:49:04.483Z,8.2
2019-02-08T18:49:12.832Z,8.4
2019-02-08T18:49:20.989Z,8.4
2019-02-08T18:49:29.230Z,8.2
2019-02-08T18:49:38.347Z,8.9
2019-02-08T18:49:46.517Z,8.9
2019-02-08T18:49:54.665Z,8.9
2019-02-08T18:50:02.768Z,8.4
2019-02-08T18:50:11.922Z,7.9
2019-02-08T18:50:20.069Z,7.9
2019-02-08T18:50:28.353Z,8
2019-02-08T18:50:37.326Z,8.2
2019-02-08T18:50:45.476Z,8.4
2019-02-08T18:50:53.609Z,8.5
2019-02-08T18:51:03.792Z,8.5
2019-02-08T18:51:11.935Z,8.5
2019-02-08T18:51:20.075Z,8.6
2019-02-08T18:51:28.213Z,8.5
2019-02-08T18:51:36.360Z,8.6
2019-02-08T18:51:44.517Z,8.3
2019-02-08T18:51:52.701Z,8.1
2019-02-08T18:52:00.930Z,8
2019-02-08T18:52:09.122Z,8.1
2019-02-08T18:52:18.675Z,8.3
2019-02-08T18:52:26.439Z,8.5
2019-02-08T18:52:34.582Z,8.6
2019-02-08T18:52:42.707Z,8.6
2019-02-08T18:52:51.827Z,8.4
2019-02-08T18:52:59.996Z,8.4
2019-02-08T18:53:10.174Z,7.9
2019-02-08T18:53:18.279Z,8
2019-02-08T18:53:26.443Z,7.9
2019-02-08T18:53:34.568Z,8.6
2019-02-08T18:53:43.707Z,8.8
2019-02-08T18:53:51.847Z,8.9
2019-02-08T18:53:59.964Z,8.5
2019-02-08T18:54:10.699Z,8.3
2019-02-08T18:54:19.241Z,8.1
2019-02-08T18:54:27.946Z,8.4
2019-02-08T18:54:37.296Z,8.4
2019-02-08T18:54:47.461Z,8.6
2019-02-08T18:54:57.848Z,8.3
2019-02-08T18:55:06.820Z,8.4
2019-02-08T18:55:15.800Z,8.2
2019-02-08T18:55:24.678Z,8.6
2019-02-08T18:55:33.997Z,8.3
2019-02-08T18:55:43.037Z,8
2019-02-08T18:55:52.402Z,8
2019-02-08T18:56:01.431Z,7.6
2019-02-08T18:56:10.794Z,7.7
2019-02-08T18:56:20.156Z,7.8
2019-02-08T18:56:28.986Z,8.2
2019-02-08T18:56:38.157Z,8.1
2019-02-08T18:56:47.491Z,8.1
2019-02-08T18:56:56.814Z,8
2019-02-08T18:57:06.644Z,8.1
2019-02-08T18:57:16.012Z,8.1
2019-02-08T18:57:27.251Z,7.8
2019-02-08T18:57:36.584Z,7.9
2019-02-08T18:57:45.859Z,8.3
2019-02-08T18:57:55.189Z,8.3
2019-02-08T18:58:04.049Z,8.2
2019-02-08T18:58:18.922Z,7.7
2019-02-08T18:58:26.782Z,7.8
2019-02-08T18:58:35.963Z,7.8
2019-02-08T18:58:45.311Z,8
2019-02-08T18:58:54.589Z,8
2019-02-08T18:59:04.956Z,8.1
2019-02-08T18:59:14.276Z,8
2019-02-08T18:59:24.167Z,7.9
2019-02-08T18:59:33.502Z,8
2019-02-08T18:59:42.821Z,8.3
2019-02-08T18:59:51.990Z,8.5
2019-02-08T19:00:01.822Z,8
2019-02-08T19:00:10.811Z,8.1
2019-02-08T19:00:20.993Z,7.9
2019-02-08T19:00:30.166Z,7.9
2019-02-08T19:00:43.427Z,7.7
2019-02-08T19:00:52.683Z,7.9
2019-02-08T19:01:02.081Z,8
2019-02-08T19:01:12.461Z,8.1
2019-02-08T19:01:21.612Z,8.2
2019-02-08T19:01:30.763Z,8.4
2019-02-08T19:01:40.054Z,8.5
2019-02-08T19:01:49.075Z,8.6
2019-02-08T19:01:58.132Z,8.8
2019-02-08T19:02:07.138Z,8.5
2019-02-08T19:02:16.482Z,8.2
2019-02-08T19:02:25.794Z,7.9
2019-02-08T19:02:34.674Z,7.7
2019-02-08T19:02:42.891Z,7.8
2019-02-08T19:02:51.777Z,8
2019-02-08T19:03:00.642Z,8.1
2019-02-08T19:03:10.786Z,7.8
2019-02-08T19:03:19.884Z,7.6
2019-02-08T19:03:28.715Z,7.6
2019-02-08T19:03:37.802Z,7.5
2019-02-08T19:03:47.144Z,7.8
2019-02-08T19:03:56.191Z,7.8
2019-02-08T19:04:05.045Z,8.3
2019-02-08T19:04:14.222Z,7.9
2019-02-08T19:04:22.931Z,7.7
2019-02-08T19:04:31.919Z,7.3
2019-02-08T19:04:41.063Z,7.5
2019-02-08T19:04:49.769Z,7.4
2019-02-08T19:04:59.062Z,7.4
2019-02-08T19:05:07.988Z,7.3
2019-02-08T19:05:16.818Z,7.4
2019-02-08T19:05:26.173Z,7.6
2019-02-08T19:05:34.903Z,7.5
2019-02-08T19:05:43.772Z,7.4
2019-02-08T19:05:53.727Z,7.1
2019-02-08T19:06:02.353Z,7
2019-02-08T19:06:12.764Z,6.9
2019-02-08T19:06:21.963Z,7.1
2019-02-08T19:06:31.184Z,6.5
2019-02-08T19:06:40.425Z,6.3
2019-02-08T19:06:49.822Z,6.2
2019-02-08T19:06:59.239Z,6.6
2019-02-08T19:07:08.310Z,6.9
2019-02-08T19:07:17.205Z,6.9
2019-02-08T19:07:26.592Z,7
2019-02-08T19:07:35.959Z,7.4
2019-02-08T19:07:44.972Z,7.4
2019-02-08T19:07:53.175Z,7.4
2019-02-08T19:08:01.456Z,7.1
2019-02-08T19:08:09.689Z,7.2
2019-02-08T19:08:18.998Z,7.2
2019-02-08T19:08:27.440Z,7.3
2019-02-08T19:08:37.709Z,7.3
2019-02-08T19:08:46.944Z,7.2
2019-02-08T19:08:55.389Z,7.1
2019-02-08T19:09:03.551Z,7
2019-02-08T19:09:11.804Z,7
2019-02-08T19:09:20.939Z,7.1
2019-02-08T19:09:30.103Z,6.9
2019-02-08T19:09:38.293Z,6.8
2019-02-08T19:09:46.484Z,6.7
2019-02-08T19:09:54.722Z,6.7
2019-02-08T19:10:02.971Z,6.9
2019-02-08T19:10:11.155Z,6.8
2019-02-08T19:10:19.445Z,6.7
2019-02-08T19:10:28.045Z,7.5
2019-02-08T19:10:38.798Z,8.6
2019-02-08T19:10:47.863Z,10.3
2019-02-08T19:10:56.406Z,11.4
2019-02-08T19:11:06.645Z,11.5
2019-02-08T19:11:15.833Z,11.6
2019-02-08T19:11:25.306Z,11.9
2019-02-08T19:11:34.657Z,12.1
2019-02-08T19:11:44.022Z,12.3
2019-02-08T19:11:53.073Z,10.8
